sensor_id;sensor_type;location;lat;lon;timestamp;P1;durP1;ratioP1;P2;durP2;ratioP2
44508;SDS011;30214;52.246;14.408;2023-09-30T00:00:35;8.30;;;3.78;;
44508;SDS011;30214;52.246;14.408;2023-09-30T00:03:05;11.32;;;3.92;;
44508;SDS011;30214;52.246;14.408;2023-09-30T00:05:37;8.23;;;3.72;;
44508;SDS011;30214;52.246;14.408;2023-09-30T00:08:05;8.30;;;3.97;;
44508;SDS011;30214;52.246;14.408;2023-09-30T00:10:33;8.32;;;3.60;;
44508;SDS011;30214;52.246;14.408;2023-09-30T00:13:05;8.90;;;3.78;;
44508;SDS011;30214;52.246;14.408;2023-09-30T00:15:36;6.55;;;3.10;;
44508;SDS011;30214;52.246;14.408;2023-09-30T00:18:07;8.00;;;3.55;;
44508;SDS011;30214;52.246;14.408;2023-09-30T00:20:38;7.03;;;3.10;;
44508;SDS011;30214;52.246;14.408;2023-09-30T00:23:09;8.90;;;3.13;;
44508;SDS011;30214;52.246;14.408;2023-09-30T00:25:42;5.55;;;2.58;;
44508;SDS011;30214;52.246;14.408;2023-09-30T00:28:15;8.27;;;2.97;;
44508;SDS011;30214;52.246;14.408;2023-09-30T00:30:45;6.68;;;2.58;;
44508;SDS011;30214;52.246;14.408;2023-09-30T00:33:15;7.28;;;2.17;;
44508;SDS011;30214;52.246;14.408;2023-09-30T00:35:55;7.35;;;2.30;;
44508;SDS011;30214;52.246;14.408;2023-09-30T00:38:23;6.65;;;1.88;;
44508;SDS011;30214;52.246;14.408;2023-09-30T00:40:57;3.22;;;1.60;;
44508;SDS011;30214;52.246;14.408;2023-09-30T00:43:31;5.40;;;1.30;;
44508;SDS011;30214;52.246;14.408;2023-09-30T00:46:02;4.63;;;0.88;;
44508;SDS011;30214;52.246;14.408;2023-09-30T00:48:40;6.03;;;1.02;;
44508;SDS011;30214;52.246;14.408;2023-09-30T00:51:09;2.45;;;0.95;;
44508;SDS011;30214;52.246;14.408;2023-09-30T00:53:41;3.22;;;0.90;;
44508;SDS011;30214;52.246;14.408;2023-09-30T00:56:11;3.08;;;0.82;;
44508;SDS011;30214;52.246;14.408;2023-09-30T00:58:46;1.98;;;0.90;;
44508;SDS011;30214;52.246;14.408;2023-09-30T01:01:18;2.45;;;0.80;;
44508;SDS011;30214;52.246;14.408;2023-09-30T01:03:48;1.98;;;0.90;;
44508;SDS011;30214;52.246;14.408;2023-09-30T01:06:15;3.50;;;1.00;;
44508;SDS011;30214;52.246;14.408;2023-09-30T01:08:46;3.10;;;1.10;;
44508;SDS011;30214;52.246;14.408;2023-09-30T01:11:16;3.90;;;0.95;;
44508;SDS011;30214;52.246;14.408;2023-09-30T01:13:44;4.60;;;1.38;;
44508;SDS011;30214;52.246;14.408;2023-09-30T01:16:18;2.95;;;1.05;;
44508;SDS011;30214;52.246;14.408;2023-09-30T01:18:49;3.33;;;1.10;;
44508;SDS011;30214;52.246;14.408;2023-09-30T01:21:20;3.88;;;1.08;;
44508;SDS011;30214;52.246;14.408;2023-09-30T01:23:54;4.60;;;1.10;;
44508;SDS011;30214;52.246;14.408;2023-09-30T01:26:27;2.53;;;0.95;;
44508;SDS011;30214;52.246;14.408;2023-09-30T01:28:58;2.58;;;1.10;;
44508;SDS011;30214;52.246;14.408;2023-09-30T01:31:34;3.93;;;1.20;;
44508;SDS011;30214;52.246;14.408;2023-09-30T01:34:03;4.38;;;1.10;;
44508;SDS011;30214;52.246;14.408;2023-09-30T01:36:33;5.13;;;1.08;;
44508;SDS011;30214;52.246;14.408;2023-09-30T01:39:06;6.88;;;1.30;;
44508;SDS011;30214;52.246;14.408;2023-09-30T01:41:38;5.00;;;1.30;;
44508;SDS011;30214;52.246;14.408;2023-09-30T01:44:08;3.85;;;1.10;;
44508;SDS011;30214;52.246;14.408;2023-09-30T01:46:38;3.97;;;1.27;;
44508;SDS011;30214;52.246;14.408;2023-09-30T01:49:07;4.15;;;1.38;;
44508;SDS011;30214;52.246;14.408;2023-09-30T01:51:37;6.75;;;1.40;;
44508;SDS011;30214;52.246;14.408;2023-09-30T01:54:09;7.13;;;1.55;;
44508;SDS011;30214;52.246;14.408;2023-09-30T01:56:37;3.95;;;1.48;;
44508;SDS011;30214;52.246;14.408;2023-09-30T01:59:11;5.28;;;1.48;;
44508;SDS011;30214;52.246;14.408;2023-09-30T02:01:47;3.38;;;1.35;;
44508;SDS011;30214;52.246;14.408;2023-09-30T02:04:17;5.05;;;1.33;;
44508;SDS011;30214;52.246;14.408;2023-09-30T02:06:46;4.50;;;1.30;;
44508;SDS011;30214;52.246;14.408;2023-09-30T02:11:51;5.28;;;1.40;;
44508;SDS011;30214;52.246;14.408;2023-09-30T02:14:20;5.00;;;1.90;;
44508;SDS011;30214;52.246;14.408;2023-09-30T02:16:49;4.57;;;1.38;;
44508;SDS011;30214;52.246;14.408;2023-09-30T02:19:17;5.50;;;1.55;;
44508;SDS011;30214;52.246;14.408;2023-09-30T02:21:49;5.30;;;1.58;;
44508;SDS011;30214;52.246;14.408;2023-09-30T02:24:17;6.57;;;1.50;;
44508;SDS011;30214;52.246;14.408;2023-09-30T02:26:51;5.43;;;1.90;;
44508;SDS011;30214;52.246;14.408;2023-09-30T02:29:21;6.80;;;1.63;;
44508;SDS011;30214;52.246;14.408;2023-09-30T02:31:50;8.23;;;1.90;;
44508;SDS011;30214;52.246;14.408;2023-09-30T02:34:20;8.07;;;1.77;;
44508;SDS011;30214;52.246;14.408;2023-09-30T02:36:50;7.45;;;2.20;;
44508;SDS011;30214;52.246;14.408;2023-09-30T02:39:21;8.27;;;2.13;;
44508;SDS011;30214;52.246;14.408;2023-09-30T02:41:54;5.70;;;1.75;;
44508;SDS011;30214;52.246;14.408;2023-09-30T02:44:26;10.05;;;2.20;;
44508;SDS011;30214;52.246;14.408;2023-09-30T02:46:54;7.22;;;1.98;;
44508;SDS011;30214;52.246;14.408;2023-09-30T02:49:24;8.77;;;2.25;;
44508;SDS011;30214;52.246;14.408;2023-09-30T02:51:55;7.35;;;2.10;;
44508;SDS011;30214;52.246;14.408;2023-09-30T02:54:25;8.57;;;2.22;;
44508;SDS011;30214;52.246;14.408;2023-09-30T02:56:58;9.32;;;3.05;;
44508;SDS011;30214;52.246;14.408;2023-09-30T02:59:26;9.40;;;2.30;;
44508;SDS011;30214;52.246;14.408;2023-09-30T03:01:55;8.80;;;2.30;;
44508;SDS011;30214;52.246;14.408;2023-09-30T03:04:37;7.75;;;2.17;;
44508;SDS011;30214;52.246;14.408;2023-09-30T03:07:10;9.95;;;2.47;;
44508;SDS011;30214;52.246;14.408;2023-09-30T03:09:39;8.15;;;2.30;;
44508;SDS011;30214;52.246;14.408;2023-09-30T03:12:11;10.05;;;2.38;;
44508;SDS011;30214;52.246;14.408;2023-09-30T03:14:44;8.85;;;2.28;;
44508;SDS011;30214;52.246;14.408;2023-09-30T03:17:13;11.38;;;2.85;;
44508;SDS011;30214;52.246;14.408;2023-09-30T03:19:42;10.27;;;2.35;;
44508;SDS011;30214;52.246;14.408;2023-09-30T03:22:11;11.45;;;2.70;;
44508;SDS011;30214;52.246;14.408;2023-09-30T03:24:40;12.10;;;2.40;;
44508;SDS011;30214;52.246;14.408;2023-09-30T03:27:10;15.55;;;3.00;;
44508;SDS011;30214;52.246;14.408;2023-09-30T03:29:41;11.25;;;2.60;;
44508;SDS011;30214;52.246;14.408;2023-09-30T03:32:09;10.60;;;2.80;;
44508;SDS011;30214;52.246;14.408;2023-09-30T03:34:39;13.32;;;2.67;;
44508;SDS011;30214;52.246;14.408;2023-09-30T03:37:10;7.97;;;2.10;;
44508;SDS011;30214;52.246;14.408;2023-09-30T03:39:38;9.18;;;2.50;;
44508;SDS011;30214;52.246;14.408;2023-09-30T03:42:07;8.43;;;2.28;;
44508;SDS011;30214;52.246;14.408;2023-09-30T03:44:40;11.27;;;2.72;;
44508;SDS011;30214;52.246;14.408;2023-09-30T03:47:09;10.00;;;2.60;;
44508;SDS011;30214;52.246;14.408;2023-09-30T03:49:37;7.93;;;2.50;;
44508;SDS011;30214;52.246;14.408;2023-09-30T03:52:13;12.10;;;2.92;;
44508;SDS011;30214;52.246;14.408;2023-09-30T03:54:43;10.48;;;2.38;;
44508;SDS011;30214;52.246;14.408;2023-09-30T03:57:11;9.80;;;2.55;;
44508;SDS011;30214;52.246;14.408;2023-09-30T03:59:44;14.93;;;3.33;;
44508;SDS011;30214;52.246;14.408;2023-09-30T04:02:12;11.95;;;2.85;;
44508;SDS011;30214;52.246;14.408;2023-09-30T04:04:41;10.80;;;3.55;;
44508;SDS011;30214;52.246;14.408;2023-09-30T04:07:12;11.13;;;2.83;;
44508;SDS011;30214;52.246;14.408;2023-09-30T04:09:42;9.32;;;2.55;;
44508;SDS011;30214;52.246;14.408;2023-09-30T04:12:10;10.15;;;2.92;;
44508;SDS011;30214;52.246;14.408;2023-09-30T04:14:38;10.00;;;2.80;;
44508;SDS011;30214;52.246;14.408;2023-09-30T04:17:09;10.70;;;2.85;;
44508;SDS011;30214;52.246;14.408;2023-09-30T04:19:37;17.25;;;3.67;;
44508;SDS011;30214;52.246;14.408;2023-09-30T04:22:04;12.02;;;3.40;;
44508;SDS011;30214;52.246;14.408;2023-09-30T04:24:35;12.82;;;3.08;;
44508;SDS011;30214;52.246;14.408;2023-09-30T04:27:04;12.90;;;3.17;;
44508;SDS011;30214;52.246;14.408;2023-09-30T04:29:34;18.00;;;3.47;;
44508;SDS011;30214;52.246;14.408;2023-09-30T04:32:05;15.80;;;4.38;;
44508;SDS011;30214;52.246;14.408;2023-09-30T04:34:35;16.33;;;3.70;;
44508;SDS011;30214;52.246;14.408;2023-09-30T04:37:03;13.77;;;3.13;;
44508;SDS011;30214;52.246;14.408;2023-09-30T04:39:35;19.58;;;3.90;;
44508;SDS011;30214;52.246;14.408;2023-09-30T04:42:05;15.60;;;3.78;;
44508;SDS011;30214;52.246;14.408;2023-09-30T04:44:36;11.38;;;2.60;;
44508;SDS011;30214;52.246;14.408;2023-09-30T04:47:09;15.75;;;2.90;;
44508;SDS011;30214;52.246;14.408;2023-09-30T04:49:40;14.07;;;2.92;;
44508;SDS011;30214;52.246;14.408;2023-09-30T04:52:09;12.98;;;3.80;;
44508;SDS011;30214;52.246;14.408;2023-09-30T04:54:37;12.13;;;3.22;;
44508;SDS011;30214;52.246;14.408;2023-09-30T04:57:06;13.35;;;3.13;;
44508;SDS011;30214;52.246;14.408;2023-09-30T04:59:37;15.93;;;3.22;;
44508;SDS011;30214;52.246;14.408;2023-09-30T05:02:08;15.90;;;3.15;;
44508;SDS011;30214;52.246;14.408;2023-09-30T05:04:36;19.60;;;3.75;;
44508;SDS011;30214;52.246;14.408;2023-09-30T05:09:54;9.80;;;2.72;;
44508;SDS011;30214;52.246;14.408;2023-09-30T05:12:26;11.70;;;3.03;;
44508;SDS011;30214;52.246;14.408;2023-09-30T05:14:54;16.15;;;3.53;;
44508;SDS011;30214;52.246;14.408;2023-09-30T05:17:22;12.43;;;3.40;;
44508;SDS011;30214;52.246;14.408;2023-09-30T05:19:58;9.38;;;2.70;;
44508;SDS011;30214;52.246;14.408;2023-09-30T05:22:29;12.13;;;3.00;;
44508;SDS011;30214;52.246;14.408;2023-09-30T05:24:57;13.25;;;3.38;;
44508;SDS011;30214;52.246;14.408;2023-09-30T05:27:26;11.02;;;3.58;;
44508;SDS011;30214;52.246;14.408;2023-09-30T05:29:54;12.65;;;3.20;;
44508;SDS011;30214;52.246;14.408;2023-09-30T05:32:23;12.57;;;2.85;;
44508;SDS011;30214;52.246;14.408;2023-09-30T05:34:54;14.40;;;3.30;;
44508;SDS011;30214;52.246;14.408;2023-09-30T05:37:21;10.85;;;3.33;;
44508;SDS011;30214;52.246;14.408;2023-09-30T05:39:49;12.30;;;3.30;;
44508;SDS011;30214;52.246;14.408;2023-09-30T05:42:16;16.00;;;3.67;;
44508;SDS011;30214;52.246;14.408;2023-09-30T05:44:44;10.88;;;3.05;;
44508;SDS011;30214;52.246;14.408;2023-09-30T05:47:11;12.57;;;3.63;;
44508;SDS011;30214;52.246;14.408;2023-09-30T05:49:38;15.55;;;3.33;;
44508;SDS011;30214;52.246;14.408;2023-09-30T05:52:05;15.38;;;2.90;;
44508;SDS011;30214;52.246;14.408;2023-09-30T05:54:32;11.85;;;2.95;;
44508;SDS011;30214;52.246;14.408;2023-09-30T05:57:00;10.90;;;3.00;;
44508;SDS011;30214;52.246;14.408;2023-09-30T05:59:28;11.60;;;3.30;;
44508;SDS011;30214;52.246;14.408;2023-09-30T06:01:55;10.45;;;3.05;;
44508;SDS011;30214;52.246;14.408;2023-09-30T06:04:22;11.73;;;3.15;;
44508;SDS011;30214;52.246;14.408;2023-09-30T06:06:49;16.25;;;3.40;;
44508;SDS011;30214;52.246;14.408;2023-09-30T06:09:16;13.95;;;3.42;;
44508;SDS011;30214;52.246;14.408;2023-09-30T06:11:42;10.00;;;2.83;;
44508;SDS011;30214;52.246;14.408;2023-09-30T06:14:11;13.35;;;3.60;;
44508;SDS011;30214;52.246;14.408;2023-09-30T06:16:38;16.25;;;3.60;;
44508;SDS011;30214;52.246;14.408;2023-09-30T06:19:05;12.45;;;3.42;;
44508;SDS011;30214;52.246;14.408;2023-09-30T06:21:32;16.27;;;4.25;;
44508;SDS011;30214;52.246;14.408;2023-09-30T06:23:59;11.55;;;2.88;;
44508;SDS011;30214;52.246;14.408;2023-09-30T06:26:26;13.15;;;3.55;;
44508;SDS011;30214;52.246;14.408;2023-09-30T06:28:55;15.00;;;3.42;;
44508;SDS011;30214;52.246;14.408;2023-09-30T06:31:23;11.60;;;3.15;;
44508;SDS011;30214;52.246;14.408;2023-09-30T06:33:50;15.18;;;3.38;;
44508;SDS011;30214;52.246;14.408;2023-09-30T06:36:17;11.95;;;3.17;;
44508;SDS011;30214;52.246;14.408;2023-09-30T06:38:44;13.68;;;4.05;;
44508;SDS011;30214;52.246;14.408;2023-09-30T06:41:16;15.93;;;3.33;;
44508;SDS011;30214;52.246;14.408;2023-09-30T06:43:44;13.95;;;3.67;;
44508;SDS011;30214;52.246;14.408;2023-09-30T06:46:11;16.75;;;4.25;;
44508;SDS011;30214;52.246;14.408;2023-09-30T06:48:40;15.15;;;3.50;;
44508;SDS011;30214;52.246;14.408;2023-09-30T06:51:07;14.07;;;3.83;;
44508;SDS011;30214;52.246;14.408;2023-09-30T06:53:38;11.48;;;3.20;;
44508;SDS011;30214;52.246;14.408;2023-09-30T06:56:05;12.57;;;3.13;;
44508;SDS011;30214;52.246;14.408;2023-09-30T06:58:33;16.33;;;3.95;;
44508;SDS011;30214;52.246;14.408;2023-09-30T07:01:00;12.07;;;3.47;;
44508;SDS011;30214;52.246;14.408;2023-09-30T07:03:27;14.07;;;3.35;;
44508;SDS011;30214;52.246;14.408;2023-09-30T07:05:56;12.95;;;3.38;;
44508;SDS011;30214;52.246;14.408;2023-09-30T07:08:26;17.92;;;3.38;;
44508;SDS011;30214;52.246;14.408;2023-09-30T07:10:55;15.50;;;3.60;;
44508;SDS011;30214;52.246;14.408;2023-09-30T07:13:22;12.95;;;3.63;;
44508;SDS011;30214;52.246;14.408;2023-09-30T07:15:49;13.25;;;3.15;;
44508;SDS011;30214;52.246;14.408;2023-09-30T07:18:16;12.20;;;3.30;;
44508;SDS011;30214;52.246;14.408;2023-09-30T07:20:44;14.18;;;3.00;;
44508;SDS011;30214;52.246;14.408;2023-09-30T07:23:12;13.98;;;3.55;;
44508;SDS011;30214;52.246;14.408;2023-09-30T07:25:39;14.07;;;3.35;;
44508;SDS011;30214;52.246;14.408;2023-09-30T07:28:07;14.85;;;3.35;;
44508;SDS011;30214;52.246;14.408;2023-09-30T07:30:37;11.30;;;3.15;;
44508;SDS011;30214;52.246;14.408;2023-09-30T07:33:05;10.43;;;3.03;;
44508;SDS011;30214;52.246;14.408;2023-09-30T07:35:32;15.68;;;4.18;;
44508;SDS011;30214;52.246;14.408;2023-09-30T07:38:00;11.60;;;3.00;;
44508;SDS011;30214;52.246;14.408;2023-09-30T07:40:29;13.27;;;3.70;;
44508;SDS011;30214;52.246;14.408;2023-09-30T07:42:56;17.83;;;3.75;;
44508;SDS011;30214;52.246;14.408;2023-09-30T07:45:23;16.00;;;3.65;;
44508;SDS011;30214;52.246;14.408;2023-09-30T07:47:50;12.00;;;3.17;;
44508;SDS011;30214;52.246;14.408;2023-09-30T07:50:17;14.98;;;3.20;;
44508;SDS011;30214;52.246;14.408;2023-09-30T07:52:44;11.30;;;3.17;;
44508;SDS011;30214;52.246;14.408;2023-09-30T07:55:11;15.88;;;3.78;;
44508;SDS011;30214;52.246;14.408;2023-09-30T07:57:41;18.67;;;4.95;;
44508;SDS011;30214;52.246;14.408;2023-09-30T08:00:14;20.45;;;3.83;;
44508;SDS011;30214;52.246;14.408;2023-09-30T08:02:42;15.90;;;3.97;;
44508;SDS011;30214;52.246;14.408;2023-09-30T08:05:10;18.17;;;3.38;;
44508;SDS011;30214;52.246;14.408;2023-09-30T08:07:37;11.13;;;2.97;;
44508;SDS011;30214;52.246;14.408;2023-09-30T08:10:05;18.00;;;3.65;;
44508;SDS011;30214;52.246;14.408;2023-09-30T08:12:38;16.67;;;3.60;;
44508;SDS011;30214;52.246;14.408;2023-09-30T08:15:07;12.32;;;3.08;;
44508;SDS011;30214;52.246;14.408;2023-09-30T08:17:36;15.00;;;2.90;;
44508;SDS011;30214;52.246;14.408;2023-09-30T08:20:04;20.30;;;4.00;;
44508;SDS011;30214;52.246;14.408;2023-09-30T08:22:33;14.68;;;3.53;;
44508;SDS011;30214;52.246;14.408;2023-09-30T08:25:00;15.05;;;3.47;;
44508;SDS011;30214;52.246;14.408;2023-09-30T08:27:27;14.45;;;3.38;;
44508;SDS011;30214;52.246;14.408;2023-09-30T08:29:54;13.70;;;3.08;;
44508;SDS011;30214;52.246;14.408;2023-09-30T08:32:22;13.15;;;3.15;;
44508;SDS011;30214;52.246;14.408;2023-09-30T08:34:49;18.20;;;3.35;;
44508;SDS011;30214;52.246;14.408;2023-09-30T08:37:16;13.57;;;3.03;;
44508;SDS011;30214;52.246;14.408;2023-09-30T08:39:43;18.13;;;3.80;;
44508;SDS011;30214;52.246;14.408;2023-09-30T08:42:10;14.70;;;3.70;;
44508;SDS011;30214;52.246;14.408;2023-09-30T08:44:38;11.77;;;3.33;;
44508;SDS011;30214;52.246;14.408;2023-09-30T08:47:05;13.35;;;3.28;;
44508;SDS011;30214;52.246;14.408;2023-09-30T08:49:37;16.08;;;3.33;;
44508;SDS011;30214;52.246;14.408;2023-09-30T08:52:05;13.35;;;2.67;;
44508;SDS011;30214;52.246;14.408;2023-09-30T08:54:35;11.63;;;2.97;;
44508;SDS011;30214;52.246;14.408;2023-09-30T08:57:02;16.77;;;3.47;;
44508;SDS011;30214;52.246;14.408;2023-09-30T08:59:30;15.93;;;3.15;;
44508;SDS011;30214;52.246;14.408;2023-09-30T09:02:00;14.70;;;3.05;;
44508;SDS011;30214;52.246;14.408;2023-09-30T09:04:28;14.32;;;3.08;;
44508;SDS011;30214;52.246;14.408;2023-09-30T09:06:57;13.77;;;3.25;;
44508;SDS011;30214;52.246;14.408;2023-09-30T09:09:24;12.15;;;2.95;;
44508;SDS011;30214;52.246;14.408;2023-09-30T09:11:51;18.27;;;3.10;;
44508;SDS011;30214;52.246;14.408;2023-09-30T09:14:18;12.43;;;3.20;;
44508;SDS011;30214;52.246;14.408;2023-09-30T09:16:52;17.08;;;3.30;;
44508;SDS011;30214;52.246;14.408;2023-09-30T09:19:20;11.60;;;3.30;;
44508;SDS011;30214;52.246;14.408;2023-09-30T09:21:54;16.30;;;3.20;;
44508;SDS011;30214;52.246;14.408;2023-09-30T09:24:33;16.50;;;3.03;;
44508;SDS011;30214;52.246;14.408;2023-09-30T09:27:03;13.98;;;3.22;;
44508;SDS011;30214;52.246;14.408;2023-09-30T09:29:31;12.23;;;2.88;;
44508;SDS011;30214;52.246;14.408;2023-09-30T09:32:11;11.20;;;2.70;;
44508;SDS011;30214;52.246;14.408;2023-09-30T09:34:39;12.30;;;2.90;;
44508;SDS011;30214;52.246;14.408;2023-09-30T09:37:13;12.68;;;2.85;;
44508;SDS011;30214;52.246;14.408;2023-09-30T09:39:49;18.95;;;3.00;;
44508;SDS011;30214;52.246;14.408;2023-09-30T09:42:24;11.95;;;3.20;;
44508;SDS011;30214;52.246;14.408;2023-09-30T09:44:54;13.55;;;3.45;;
44508;SDS011;30214;52.246;14.408;2023-09-30T09:47:23;15.93;;;3.38;;
44508;SDS011;30214;52.246;14.408;2023-09-30T09:49:51;13.40;;;3.00;;
44508;SDS011;30214;52.246;14.408;2023-09-30T09:52:20;10.77;;;2.78;;
44508;SDS011;30214;52.246;14.408;2023-09-30T09:54:47;14.90;;;3.13;;
44508;SDS011;30214;52.246;14.408;2023-09-30T09:57:17;16.38;;;3.17;;
44508;SDS011;30214;52.246;14.408;2023-09-30T09:59:45;16.08;;;3.10;;
44508;SDS011;30214;52.246;14.408;2023-09-30T10:02:13;13.02;;;2.95;;
44508;SDS011;30214;52.246;14.408;2023-09-30T10:04:43;17.20;;;2.90;;
44508;SDS011;30214;52.246;14.408;2023-09-30T10:07:11;13.40;;;3.00;;
44508;SDS011;30214;52.246;14.408;2023-09-30T10:09:41;18.45;;;3.20;;
44508;SDS011;30214;52.246;14.408;2023-09-30T10:12:14;12.98;;;2.80;;
44508;SDS011;30214;52.246;14.408;2023-09-30T10:14:42;13.30;;;3.38;;
44508;SDS011;30214;52.246;14.408;2023-09-30T10:17:09;14.15;;;2.95;;
44508;SDS011;30214;52.246;14.408;2023-09-30T10:19:36;13.27;;;2.72;;
44508;SDS011;30214;52.246;14.408;2023-09-30T10:22:30;10.45;;;2.58;;
44508;SDS011;30214;52.246;14.408;2023-09-30T10:24:57;12.27;;;2.75;;
44508;SDS011;30214;52.246;14.408;2023-09-30T10:27:29;10.98;;;2.50;;
44508;SDS011;30214;52.246;14.408;2023-09-30T10:29:58;15.43;;;2.95;;
44508;SDS011;30214;52.246;14.408;2023-09-30T10:35:42;11.88;;;2.63;;
44508;SDS011;30214;52.246;14.408;2023-09-30T10:41:08;13.25;;;2.95;;
44508;SDS011;30214;52.246;14.408;2023-09-30T10:43:41;13.80;;;2.55;;
44508;SDS011;30214;52.246;14.408;2023-09-30T10:51:42;13.82;;;2.47;;
44508;SDS011;30214;52.246;14.408;2023-09-30T10:54:10;9.93;;;2.33;;
44508;SDS011;30214;52.246;14.408;2023-09-30T10:56:39;12.50;;;2.90;;
44508;SDS011;30214;52.246;14.408;2023-09-30T10:59:07;10.85;;;2.30;;
44508;SDS011;30214;52.246;14.408;2023-09-30T11:01:34;12.52;;;3.15;;
44508;SDS011;30214;52.246;14.408;2023-09-30T11:04:02;14.45;;;2.85;;
44508;SDS011;30214;52.246;14.408;2023-09-30T11:06:31;12.60;;;2.30;;
44508;SDS011;30214;52.246;14.408;2023-09-30T11:08:59;14.20;;;2.90;;
44508;SDS011;30214;52.246;14.408;2023-09-30T11:11:34;13.35;;;2.70;;
44508;SDS011;30214;52.246;14.408;2023-09-30T11:14:02;14.20;;;2.67;;
44508;SDS011;30214;52.246;14.408;2023-09-30T11:16:41;9.38;;;2.20;;
44508;SDS011;30214;52.246;14.408;2023-09-30T11:19:09;11.48;;;2.90;;
44508;SDS011;30214;52.246;14.408;2023-09-30T11:21:36;10.68;;;2.60;;
44508;SDS011;30214;52.246;14.408;2023-09-30T11:24:04;9.48;;;2.00;;
44508;SDS011;30214;52.246;14.408;2023-09-30T11:26:33;12.95;;;2.50;;
44508;SDS011;30214;52.246;14.408;2023-09-30T11:29:07;13.35;;;2.90;;
44508;SDS011;30214;52.246;14.408;2023-09-30T11:31:40;10.40;;;2.47;;
44508;SDS011;30214;52.246;14.408;2023-09-30T11:34:09;10.50;;;2.50;;
44508;SDS011;30214;52.246;14.408;2023-09-30T11:36:37;10.65;;;2.47;;
44508;SDS011;30214;52.246;14.408;2023-09-30T11:39:08;8.77;;;2.55;;
44508;SDS011;30214;52.246;14.408;2023-09-30T11:41:39;13.88;;;2.85;;
44508;SDS011;30214;52.246;14.408;2023-09-30T11:44:07;13.20;;;2.28;;
44508;SDS011;30214;52.246;14.408;2023-09-30T11:46:51;10.32;;;2.63;;
44508;SDS011;30214;52.246;14.408;2023-09-30T11:49:26;9.88;;;2.22;;
44508;SDS011;30214;52.246;14.408;2023-09-30T11:51:57;9.48;;;2.42;;
44508;SDS011;30214;52.246;14.408;2023-09-30T11:54:28;7.72;;;2.25;;
44508;SDS011;30214;52.246;14.408;2023-09-30T11:56:57;6.63;;;1.90;;
44508;SDS011;30214;52.246;14.408;2023-09-30T11:59:24;9.82;;;2.17;;
44508;SDS011;30214;52.246;14.408;2023-09-30T12:01:52;7.82;;;1.83;;
44508;SDS011;30214;52.246;14.408;2023-09-30T12:04:19;7.05;;;1.88;;
44508;SDS011;30214;52.246;14.408;2023-09-30T12:06:47;12.90;;;2.38;;
44508;SDS011;30214;52.246;14.408;2023-09-30T12:09:14;9.35;;;2.05;;
44508;SDS011;30214;52.246;14.408;2023-09-30T12:11:47;10.52;;;2.05;;
44508;SDS011;30214;52.246;14.408;2023-09-30T12:14:14;9.63;;;2.22;;
44508;SDS011;30214;52.246;14.408;2023-09-30T12:16:41;7.90;;;1.85;;
44508;SDS011;30214;52.246;14.408;2023-09-30T12:19:12;9.07;;;2.13;;
44508;SDS011;30214;52.246;14.408;2023-09-30T12:21:40;9.48;;;2.30;;
44508;SDS011;30214;52.246;14.408;2023-09-30T12:24:08;9.73;;;2.70;;
44508;SDS011;30214;52.246;14.408;2023-09-30T12:26:36;10.70;;;2.42;;
44508;SDS011;30214;52.246;14.408;2023-09-30T12:29:03;9.13;;;2.10;;
44508;SDS011;30214;52.246;14.408;2023-09-30T12:31:30;8.40;;;1.85;;
44508;SDS011;30214;52.246;14.408;2023-09-30T12:33:58;9.82;;;1.90;;
44508;SDS011;30214;52.246;14.408;2023-09-30T12:36:27;8.07;;;1.90;;
44508;SDS011;30214;52.246;14.408;2023-09-30T12:38:54;9.52;;;2.20;;
44508;SDS011;30214;52.246;14.408;2023-09-30T12:41:21;10.18;;;2.35;;
44508;SDS011;30214;52.246;14.408;2023-09-30T12:43:48;8.95;;;1.70;;
44508;SDS011;30214;52.246;14.408;2023-09-30T12:46:15;10.43;;;2.25;;
44508;SDS011;30214;52.246;14.408;2023-09-30T12:48:43;8.90;;;2.25;;
44508;SDS011;30214;52.246;14.408;2023-09-30T12:51:11;8.77;;;1.90;;
44508;SDS011;30214;52.246;14.408;2023-09-30T12:53:39;10.38;;;2.85;;
44508;SDS011;30214;52.246;14.408;2023-09-30T12:56:06;11.68;;;1.92;;
44508;SDS011;30214;52.246;14.408;2023-09-30T12:58:33;10.30;;;2.05;;
44508;SDS011;30214;52.246;14.408;2023-09-30T13:01:00;6.05;;;1.52;;
44508;SDS011;30214;52.246;14.408;2023-09-30T13:03:27;9.00;;;1.75;;
44508;SDS011;30214;52.246;14.408;2023-09-30T13:05:54;6.88;;;1.38;;
44508;SDS011;30214;52.246;14.408;2023-09-30T13:08:21;9.30;;;1.80;;
44508;SDS011;30214;52.246;14.408;2023-09-30T13:10:50;6.30;;;2.00;;
44508;SDS011;30214;52.246;14.408;2023-09-30T13:13:17;11.80;;;1.90;;
44508;SDS011;30214;52.246;14.408;2023-09-30T13:15:44;9.10;;;1.70;;
44508;SDS011;30214;52.246;14.408;2023-09-30T13:18:11;7.00;;;2.08;;
44508;SDS011;30214;52.246;14.408;2023-09-30T13:20:39;6.28;;;2.17;;
44508;SDS011;30214;52.246;14.408;2023-09-30T13:23:06;9.18;;;1.80;;
44508;SDS011;30214;52.246;14.408;2023-09-30T13:25:33;7.00;;;1.60;;
44508;SDS011;30214;52.246;14.408;2023-09-30T13:28:02;8.38;;;1.90;;
44508;SDS011;30214;52.246;14.408;2023-09-30T13:30:29;8.00;;;1.75;;
44508;SDS011;30214;52.246;14.408;2023-09-30T13:32:57;7.95;;;1.67;;
44508;SDS011;30214;52.246;14.408;2023-09-30T13:35:25;9.35;;;1.83;;
44508;SDS011;30214;52.246;14.408;2023-09-30T13:37:52;6.18;;;1.83;;
44508;SDS011;30214;52.246;14.408;2023-09-30T13:40:19;5.82;;;1.70;;
44508;SDS011;30214;52.246;14.408;2023-09-30T13:42:45;7.80;;;2.00;;
44508;SDS011;30214;52.246;14.408;2023-09-30T13:45:22;7.32;;;1.95;;
44508;SDS011;30214;52.246;14.408;2023-09-30T13:47:50;5.38;;;1.60;;
44508;SDS011;30214;52.246;14.408;2023-09-30T13:50:18;7.10;;;1.88;;
44508;SDS011;30214;52.246;14.408;2023-09-30T13:52:45;10.32;;;1.92;;
44508;SDS011;30214;52.246;14.408;2023-09-30T13:55:13;8.90;;;1.88;;
44508;SDS011;30214;52.246;14.408;2023-09-30T13:57:45;8.25;;;2.75;;
44508;SDS011;30214;52.246;14.408;2023-09-30T14:00:16;7.32;;;1.92;;
44508;SDS011;30214;52.246;14.408;2023-09-30T14:02:45;11.00;;;2.00;;
44508;SDS011;30214;52.246;14.408;2023-09-30T14:05:12;9.43;;;1.90;;
44508;SDS011;30214;52.246;14.408;2023-09-30T14:07:40;10.07;;;2.05;;
44508;SDS011;30214;52.246;14.408;2023-09-30T14:10:10;6.80;;;1.85;;
44508;SDS011;30214;52.246;14.408;2023-09-30T14:12:38;8.50;;;1.92;;
44508;SDS011;30214;52.246;14.408;2023-09-30T14:15:09;9.73;;;1.90;;
44508;SDS011;30214;52.246;14.408;2023-09-30T14:17:39;11.40;;;1.90;;
44508;SDS011;30214;52.246;14.408;2023-09-30T14:20:07;10.98;;;1.88;;
44508;SDS011;30214;52.246;14.408;2023-09-30T14:22:37;5.93;;;1.70;;
44508;SDS011;30214;52.246;14.408;2023-09-30T14:25:09;11.35;;;1.98;;
44508;SDS011;30214;52.246;14.408;2023-09-30T14:27:37;9.02;;;1.85;;
44508;SDS011;30214;52.246;14.408;2023-09-30T14:30:05;7.30;;;2.00;;
44508;SDS011;30214;52.246;14.408;2023-09-30T14:32:33;6.55;;;2.08;;
44508;SDS011;30214;52.246;14.408;2023-09-30T14:35:02;6.10;;;1.77;;
44508;SDS011;30214;52.246;14.408;2023-09-30T14:37:30;8.23;;;1.77;;
44508;SDS011;30214;52.246;14.408;2023-09-30T14:39:57;7.93;;;2.25;;
44508;SDS011;30214;52.246;14.408;2023-09-30T14:42:24;14.20;;;2.53;;
44508;SDS011;30214;52.246;14.408;2023-09-30T14:44:51;7.85;;;1.77;;
44508;SDS011;30214;52.246;14.408;2023-09-30T14:47:18;7.20;;;2.08;;
44508;SDS011;30214;52.246;14.408;2023-09-30T14:49:45;7.18;;;1.90;;
44508;SDS011;30214;52.246;14.408;2023-09-30T14:52:13;8.20;;;2.22;;
44508;SDS011;30214;52.246;14.408;2023-09-30T14:54:41;5.57;;;1.58;;